LSZG Airport Information

Runway Information
Runway 06 Length 3281 ft width 75 ft Elevation 1407 ft Threshold 443 ft Heading 66
Runway 24 Length 3281 ft Width 75 ft Elevation 1405 ft Threshold N/A Heading 246
Runway 06R Length 2297 ft width 66 ft Elevation N/A Threshold 459 ft Heading 70
Runway 24L Length 2297 ft Width 66 ft Elevation ft Threshold N/A Heading 250
Runway 06L Length 1640 ft width 98 ft Elevation N/A Threshold 213 ft Heading 66
Runway 24R Length 1640 ft Width 98 ft Elevation ft Threshold 85 ft Heading 246
Runway 07 Length 0 ft width 0 ft Elevation 1407 ft Threshold N/A Heading 0
Runway 25 Length 0 ft Width 0 ft Elevation 1407 ft Threshold N/A Heading 0
Airport Frequencies
Type APP Name Bern Appro Frequency 127.325 MHZ
Type ATIS Name ATIS Frequency 121.1 MHZ
Type GND Name GND Frequency 121.8 MHZ
Type TWR Name ge, en Frequency 120.1 MHZ
Airport Navaids
Type VOR-DME Name Grenchen Frequency 115450 KHZ
Type NDB Name Grenchen Frequency 326 KHZ
Airport Weather Information & NOTAM
ADDS - METARS form results

(0244 UTC 12 August 2022)
Data provider http://aviationweather.gov/metar/data/
 
METAR text: LSZG 120220Z AUTO 04004KT 9999 NCD 17/11 Q1017
Conditions at: LSZG (GRENCHEN , CH) observed 0220 UTC 12 August 2022
Temperature: 17.0°C (63°F)
Dewpoint: 11.0°C (52°F) [RH = 68%]
Pressure (altimeter): 30.03 inches Hg (1017.0 mb)
Winds: from the NE (40 degrees) at 5 MPH (4 knots; 2.1 m/s)
Visibility: 6 or more miles (10+ km)
Ceiling: at least 12,000 feet AGL
Clouds: sky clear below 12,000 feet AGL
Weather: no significant weather observed at this time

METAR text: LSZG 120150Z AUTO 04003KT 9999 NCD 17/11 Q1017
Conditions at: LSZG (GRENCHEN , CH) observed 0150 UTC 12 August 2022
Temperature: 17.0°C (63°F)
Dewpoint: 11.0°C (52°F) [RH = 68%]
Pressure (altimeter): 30.03 inches Hg (1017.0 mb)
Winds: from the NE (40 degrees) at 3 MPH (3 knots; 1.5 m/s)
Visibility: 6 or more miles (10+ km)
Ceiling: at least 12,000 feet AGL
Clouds: sky clear below 12,000 feet AGL
Weather: no significant weather observed at this time

Forecast for: LSZG (GRENCHEN , CH)
Text: TAF LSZG 120225Z 1203/1212 04005KT CAVOK
Forecast period: 0300 to 0900 UTC 12 August 2022
Forecast type: FROM: standard forecast or significant change
Winds: from the NE (40 degrees) at 6 MPH (5 knots; 2.6 m/s)
Visibility: 6 or more miles (10+ km)
Ceiling: unknown
Clouds: missing
Weather: NSW  (no significant weather)
Text: BECMG 1209/1212 07011G26KT
Forecast period: 0900 to 1200 UTC 12 August 2022
Forecast type: BECOMING: Conditions expected to become as follows by 1200 UTC 12 August 2022
Winds: from the ENE (70 degrees) at 13 MPH (11 knots; 5.7 m/s)
gusting to 30 MPH (26 knots; 13.4 m/s)
Visibility: 6 or more miles (10+ km)
Ceiling: unknown
Clouds: missing
Weather: NSW  (no significant weather)